sensor_id;sensor_type;location;lat;lon;timestamp;pressure;altitude;pressure_sealevel;temperature;humidity
27358;BME280;14831;50.474;7.616;2023-02-28T00:00:35;99140;;;-1.1;79.9
27358;BME280;14831;50.474;7.616;2023-02-28T00:05:35;99150;;;-1.3;80.7
27358;BME280;14831;50.474;7.616;2023-02-28T00:10:35;99130;;;-1.2;80.7
27358;BME280;14831;50.474;7.616;2023-02-28T00:15:35;99140;;;-1.3;81.0
27358;BME280;14831;50.474;7.616;2023-02-28T00:20:35;99140;;;-1.4;81.2
27358;BME280;14831;50.474;7.616;2023-02-28T00:25:35;99130;;;-1.5;81.9
27358;BME280;14831;50.474;7.616;2023-02-28T00:30:35;99130;;;-1.5;82.1
27358;BME280;14831;50.474;7.616;2023-02-28T00:35:35;99120;;;-1.6;82.1
27358;BME280;14831;50.474;7.616;2023-02-28T00:40:35;99130;;;-1.5;81.6
27358;BME280;14831;50.474;7.616;2023-02-28T00:45:35;99130;;;-1.6;81.6
27358;BME280;14831;50.474;7.616;2023-02-28T00:50:35;99130;;;-1.6;81.5
27358;BME280;14831;50.474;7.616;2023-02-28T00:55:35;99140;;;-1.6;81.3
27358;BME280;14831;50.474;7.616;2023-02-28T01:00:35;99140;;;-1.6;81.0
27358;BME280;14831;50.474;7.616;2023-02-28T01:06:40;99130;;;-1.6;80.4
27358;BME280;14831;50.474;7.616;2023-02-28T01:10:35;99140;;;-1.7;80.6
27358;BME280;14831;50.474;7.616;2023-02-28T01:15:35;99130;;;-1.7;80.5
27358;BME280;14831;50.474;7.616;2023-02-28T01:20:36;99130;;;-1.7;80.4
27358;BME280;14831;50.474;7.616;2023-02-28T01:25:35;99130;;;-1.9;81.0
27358;BME280;14831;50.474;7.616;2023-02-28T01:30:35;99140;;;-1.9;80.6
27358;BME280;14831;50.474;7.616;2023-02-28T01:35:35;99120;;;-2.0;81.0
27358;BME280;14831;50.474;7.616;2023-02-28T01:40:35;99120;;;-1.9;80.6
27358;BME280;14831;50.474;7.616;2023-02-28T01:45:35;99130;;;-2.0;80.6
27358;BME280;14831;50.474;7.616;2023-02-28T01:50:39;99120;;;-2.1;80.9
27358;BME280;14831;50.474;7.616;2023-02-28T01:55:35;99130;;;-2.1;80.5
27358;BME280;14831;50.474;7.616;2023-02-28T02:00:35;99130;;;-2.0;80.1
27358;BME280;14831;50.474;7.616;2023-02-28T02:05:36;99120;;;-1.9;79.5
27358;BME280;14831;50.474;7.616;2023-02-28T02:15:36;99110;;;-2.0;79.4
27358;BME280;14831;50.474;7.616;2023-02-28T02:20:45;99110;;;-2.1;79.5
27358;BME280;14831;50.474;7.616;2023-02-28T02:25:35;99100;;;-2.3;80.0
27358;BME280;14831;50.474;7.616;2023-02-28T02:30:41;99100;;;-2.2;79.2
27358;BME280;14831;50.474;7.616;2023-02-28T02:35:36;99100;;;-2.2;78.9
27358;BME280;14831;50.474;7.616;2023-02-28T02:40:35;99100;;;-2.4;79.1
27358;BME280;14831;50.474;7.616;2023-02-28T02:45:36;99090;;;-2.5;79.4
27358;BME280;14831;50.474;7.616;2023-02-28T02:50:36;99090;;;-2.5;79.3
27358;BME280;14831;50.474;7.616;2023-02-28T02:55:36;99100;;;-2.6;79.4
27358;BME280;14831;50.474;7.616;2023-02-28T03:00:35;99080;;;-2.8;80.3
27358;BME280;14831;50.474;7.616;2023-02-28T03:05:35;99090;;;-2.9;81.0
27358;BME280;14831;50.474;7.616;2023-02-28T03:10:36;99100;;;-3.1;81.6
27358;BME280;14831;50.474;7.616;2023-02-28T03:15:37;99100;;;-3.1;81.9
27358;BME280;14831;50.474;7.616;2023-02-28T03:20:37;99100;;;-3.0;81.8
27358;BME280;14831;50.474;7.616;2023-02-28T03:25:37;99100;;;-3.2;82.2
27358;BME280;14831;50.474;7.616;2023-02-28T03:30:37;99090;;;-3.3;82.8
27358;BME280;14831;50.474;7.616;2023-02-28T03:35:36;99090;;;-3.3;82.9
27358;BME280;14831;50.474;7.616;2023-02-28T03:40:35;99090;;;-3.4;83.4
27358;BME280;14831;50.474;7.616;2023-02-28T03:45:35;99080;;;-3.4;83.7
27358;BME280;14831;50.474;7.616;2023-02-28T03:50:35;99080;;;-3.4;84.0
27358;BME280;14831;50.474;7.616;2023-02-28T03:55:37;99090;;;-3.5;84.3
27358;BME280;14831;50.474;7.616;2023-02-28T04:00:35;99080;;;-3.5;84.3
27358;BME280;14831;50.474;7.616;2023-02-28T04:05:43;99090;;;-3.5;84.2
27358;BME280;14831;50.474;7.616;2023-02-28T04:10:35;99080;;;-3.6;84.4
27358;BME280;14831;50.474;7.616;2023-02-28T04:15:35;99090;;;-3.5;84.0
27358;BME280;14831;50.474;7.616;2023-02-28T04:20:35;99090;;;-3.4;84.0
27358;BME280;14831;50.474;7.616;2023-02-28T04:25:35;99080;;;-3.4;83.8
27358;BME280;14831;50.474;7.616;2023-02-28T04:30:35;99080;;;-3.6;84.3
27358;BME280;14831;50.474;7.616;2023-02-28T04:35:35;99080;;;-3.6;84.3
27358;BME280;14831;50.474;7.616;2023-02-28T04:40:35;99080;;;-3.8;84.3
27358;BME280;14831;50.474;7.616;2023-02-28T04:45:35;99080;;;-3.6;84.0
27358;BME280;14831;50.474;7.616;2023-02-28T04:50:35;99080;;;-3.5;83.2
27358;BME280;14831;50.474;7.616;2023-02-28T04:55:36;99080;;;-3.4;82.2
27358;BME280;14831;50.474;7.616;2023-02-28T05:00:35;99090;;;-3.5;82.1
27358;BME280;14831;50.474;7.616;2023-02-28T05:05:35;99090;;;-3.5;81.5
27358;BME280;14831;50.474;7.616;2023-02-28T05:10:35;99090;;;-3.6;81.5
27358;BME280;14831;50.474;7.616;2023-02-28T05:15:35;99100;;;-3.6;81.1
27358;BME280;14831;50.474;7.616;2023-02-28T05:25:35;99090;;;-3.8;81.2
27358;BME280;14831;50.474;7.616;2023-02-28T05:30:35;99090;;;-3.7;80.5
27358;BME280;14831;50.474;7.616;2023-02-28T05:35:36;99100;;;-3.5;79.2
27358;BME280;14831;50.474;7.616;2023-02-28T05:40:35;99110;;;-3.3;78.3
27358;BME280;14831;50.474;7.616;2023-02-28T05:45:35;99110;;;-3.3;78.1
27358;BME280;14831;50.474;7.616;2023-02-28T05:50:35;99100;;;-3.4;78.3
27358;BME280;14831;50.474;7.616;2023-02-28T05:55:35;99100;;;-3.3;77.6
27358;BME280;14831;50.474;7.616;2023-02-28T06:00:35;99110;;;-3.3;78.0
27358;BME280;14831;50.474;7.616;2023-02-28T06:05:35;99110;;;-3.3;77.4
27358;BME280;14831;50.474;7.616;2023-02-28T06:10:35;99110;;;-3.4;77.5
27358;BME280;14831;50.474;7.616;2023-02-28T06:15:35;99120;;;-3.5;77.8
27358;BME280;14831;50.474;7.616;2023-02-28T06:20:35;99110;;;-3.7;78.3
27358;BME280;14831;50.474;7.616;2023-02-28T06:25:35;99110;;;-3.6;78.4
27358;BME280;14831;50.474;7.616;2023-02-28T06:30:36;99120;;;-3.6;78.2
27358;BME280;14831;50.474;7.616;2023-02-28T06:35:35;99110;;;-3.6;78.4
27358;BME280;14831;50.474;7.616;2023-02-28T06:40:35;99120;;;-3.4;77.6
27358;BME280;14831;50.474;7.616;2023-02-28T06:45:35;99120;;;-3.3;77.2
27358;BME280;14831;50.474;7.616;2023-02-28T06:50:35;99130;;;-3.3;77.4
27358;BME280;14831;50.474;7.616;2023-02-28T06:55:37;99140;;;-3.3;78.6
27358;BME280;14831;50.474;7.616;2023-02-28T07:00:35;99140;;;-3.3;77.1
27358;BME280;14831;50.474;7.616;2023-02-28T07:05:35;99140;;;-3.3;77.1
27358;BME280;14831;50.474;7.616;2023-02-28T07:10:36;99150;;;-3.1;76.4
27358;BME280;14831;50.474;7.616;2023-02-28T07:15:35;99140;;;-2.8;75.1
27358;BME280;14831;50.474;7.616;2023-02-28T07:20:37;99140;;;-2.6;75.0
27358;BME280;14831;50.474;7.616;2023-02-28T07:25:35;99140;;;-2.3;73.1
27358;BME280;14831;50.474;7.616;2023-02-28T07:30:35;99140;;;-2.0;71.1
27358;BME280;14831;50.474;7.616;2023-02-28T07:35:35;99160;;;-2.1;71.6
27358;BME280;14831;50.474;7.616;2023-02-28T07:40:35;99160;;;-1.8;70.1
27358;BME280;14831;50.474;7.616;2023-02-28T07:45:35;99180;;;-2.0;70.8
27358;BME280;14831;50.474;7.616;2023-02-28T07:50:35;99170;;;-2.4;72.0
27358;BME280;14831;50.474;7.616;2023-02-28T07:55:35;99170;;;-2.5;72.5
27358;BME280;14831;50.474;7.616;2023-02-28T08:00:36;99170;;;-2.2;69.9
27358;BME280;14831;50.474;7.616;2023-02-28T08:05:37;99150;;;-1.8;69.0
27358;BME280;14831;50.474;7.616;2023-02-28T08:10:35;99160;;;-1.0;65.3
27358;BME280;14831;50.474;7.616;2023-02-28T08:15:35;99170;;;-0.6;62.8
27358;BME280;14831;50.474;7.616;2023-02-28T08:20:35;99170;;;-0.9;65.3
27358;BME280;14831;50.474;7.616;2023-02-28T08:25:35;99170;;;-0.5;64.6
27358;BME280;14831;50.474;7.616;2023-02-28T08:30:35;99170;;;-0.5;63.3
27358;BME280;14831;50.474;7.616;2023-02-28T08:35:35;99180;;;0.4;58.6
27358;BME280;14831;50.474;7.616;2023-02-28T08:40:35;99170;;;-0.2;60.8
27358;BME280;14831;50.474;7.616;2023-02-28T08:45:35;99160;;;0.6;54.9
27358;BME280;14831;50.474;7.616;2023-02-28T08:50:35;99160;;;0.9;52.5
27358;BME280;14831;50.474;7.616;2023-02-28T08:55:35;99170;;;1.1;49.8
27358;BME280;14831;50.474;7.616;2023-02-28T09:00:35;99180;;;0.7;52.7
27358;BME280;14831;50.474;7.616;2023-02-28T09:05:35;99170;;;0.7;50.2
27358;BME280;14831;50.474;7.616;2023-02-28T09:10:35;99200;;;0.9;51.0
27358;BME280;14831;50.474;7.616;2023-02-28T09:15:36;99190;;;0.5;51.7
27358;BME280;14831;50.474;7.616;2023-02-28T09:20:36;99190;;;0.8;51.2
27358;BME280;14831;50.474;7.616;2023-02-28T09:25:35;99200;;;0.5;53.7
27358;BME280;14831;50.474;7.616;2023-02-28T09:30:35;99200;;;0.6;50.1
27358;BME280;14831;50.474;7.616;2023-02-28T09:35:35;99200;;;0.9;51.6
27358;BME280;14831;50.474;7.616;2023-02-28T09:40:36;99220;;;1.0;50.7
27358;BME280;14831;50.474;7.616;2023-02-28T09:45:36;99210;;;1.2;49.7
27358;BME280;14831;50.474;7.616;2023-02-28T09:50:36;99220;;;1.2;50.5
27358;BME280;14831;50.474;7.616;2023-02-28T09:55:36;99230;;;1.2;48.7
27358;BME280;14831;50.474;7.616;2023-02-28T10:00:36;99230;;;1.3;50.6
27358;BME280;14831;50.474;7.616;2023-02-28T10:05:36;99230;;;1.2;47.3
27358;BME280;14831;50.474;7.616;2023-02-28T10:10:37;99220;;;1.2;46.2
27358;BME280;14831;50.474;7.616;2023-02-28T10:15:35;99220;;;0.9;46.7
27358;BME280;14831;50.474;7.616;2023-02-28T10:20:36;99220;;;1.5;47.5
27358;BME280;14831;50.474;7.616;2023-02-28T10:25:36;99220;;;1.7;46.6
27358;BME280;14831;50.474;7.616;2023-02-28T10:30:36;99230;;;1.6;47.1
27358;BME280;14831;50.474;7.616;2023-02-28T10:35:35;99230;;;1.3;46.9
27358;BME280;14831;50.474;7.616;2023-02-28T10:40:35;99260;;;1.4;46.8
27358;BME280;14831;50.474;7.616;2023-02-28T10:45:35;99230;;;1.4;49.9
27358;BME280;14831;50.474;7.616;2023-02-28T10:50:37;99220;;;1.8;47.4
27358;BME280;14831;50.474;7.616;2023-02-28T10:55:35;99210;;;1.9;46.2
27358;BME280;14831;50.474;7.616;2023-02-28T11:00:35;99230;;;2.1;47.2
27358;BME280;14831;50.474;7.616;2023-02-28T11:05:36;99220;;;2.0;47.2
27358;BME280;14831;50.474;7.616;2023-02-28T11:10:35;99250;;;1.9;45.9
27358;BME280;14831;50.474;7.616;2023-02-28T11:15:35;99230;;;2.0;46.6
27358;BME280;14831;50.474;7.616;2023-02-28T11:20:35;99230;;;2.4;46.2
27358;BME280;14831;50.474;7.616;2023-02-28T11:25:36;99230;;;2.3;43.7
27358;BME280;14831;50.474;7.616;2023-02-28T11:30:36;99220;;;2.4;45.6
27358;BME280;14831;50.474;7.616;2023-02-28T11:35:36;99210;;;2.3;44.1
27358;BME280;14831;50.474;7.616;2023-02-28T11:40:38;99230;;;2.5;46.1
27358;BME280;14831;50.474;7.616;2023-02-28T11:46:41;99230;;;2.5;46.3
27358;BME280;14831;50.474;7.616;2023-02-28T11:50:39;99230;;;2.3;44.4
27358;BME280;14831;50.474;7.616;2023-02-28T11:55:35;99220;;;2.5;44.1
27358;BME280;14831;50.474;7.616;2023-02-28T12:00:38;99210;;;2.6;44.9
27358;BME280;14831;50.474;7.616;2023-02-28T12:05:37;99220;;;2.6;43.8
27358;BME280;14831;50.474;7.616;2023-02-28T12:10:36;99220;;;2.6;44.2
27358;BME280;14831;50.474;7.616;2023-02-28T12:15:38;99210;;;2.4;44.7
27358;BME280;14831;50.474;7.616;2023-02-28T12:20:36;99210;;;2.0;45.5
27358;BME280;14831;50.474;7.616;2023-02-28T12:25:38;99200;;;2.1;44.0
27358;BME280;14831;50.474;7.616;2023-02-28T12:30:35;99210;;;2.1;46.5
27358;BME280;14831;50.474;7.616;2023-02-28T12:35:36;99210;;;2.5;45.7
27358;BME280;14831;50.474;7.616;2023-02-28T12:40:40;99210;;;2.1;46.3
27358;BME280;14831;50.474;7.616;2023-02-28T12:45:39;99220;;;2.5;45.8
27358;BME280;14831;50.474;7.616;2023-02-28T12:50:35;99230;;;2.5;45.7
27358;BME280;14831;50.474;7.616;2023-02-28T12:55:35;99200;;;2.1;46.2
27358;BME280;14831;50.474;7.616;2023-02-28T13:00:36;99210;;;2.0;46.0
27358;BME280;14831;50.474;7.616;2023-02-28T13:05:39;99190;;;2.7;47.2
27358;BME280;14831;50.474;7.616;2023-02-28T13:10:39;99200;;;2.3;46.3
27358;BME280;14831;50.474;7.616;2023-02-28T13:15:35;99200;;;2.6;45.8
27358;BME280;14831;50.474;7.616;2023-02-28T13:20:36;99180;;;3.0;45.3
27358;BME280;14831;50.474;7.616;2023-02-28T13:25:50;99200;;;2.7;44.8
27358;BME280;14831;50.474;7.616;2023-02-28T13:31:07;99200;;;2.7;44.3
27358;BME280;14831;50.474;7.616;2023-02-28T13:35:36;99220;;;3.1;44.9
27358;BME280;14831;50.474;7.616;2023-02-28T13:40:35;99200;;;2.5;43.3
27358;BME280;14831;50.474;7.616;2023-02-28T13:45:35;99210;;;2.7;45.3
27358;BME280;14831;50.474;7.616;2023-02-28T13:50:36;99200;;;2.5;43.4
27358;BME280;14831;50.474;7.616;2023-02-28T13:55:35;99210;;;3.0;47.0
27358;BME280;14831;50.474;7.616;2023-02-28T14:00:37;99210;;;2.9;46.6
27358;BME280;14831;50.474;7.616;2023-02-28T14:05:35;99210;;;2.9;44.3
27358;BME280;14831;50.474;7.616;2023-02-28T14:10:38;99190;;;2.9;45.2
27358;BME280;14831;50.474;7.616;2023-02-28T14:15:38;99180;;;3.0;46.4
27358;BME280;14831;50.474;7.616;2023-02-28T14:20:35;99180;;;3.0;46.5
27358;BME280;14831;50.474;7.616;2023-02-28T14:25:36;99170;;;2.7;47.6
27358;BME280;14831;50.474;7.616;2023-02-28T14:30:40;99170;;;2.9;46.0
27358;BME280;14831;50.474;7.616;2023-02-28T14:35:39;99180;;;2.9;47.9
27358;BME280;14831;50.474;7.616;2023-02-28T14:40:35;99160;;;2.8;47.4
27358;BME280;14831;50.474;7.616;2023-02-28T14:45:35;99170;;;2.7;47.4
27358;BME280;14831;50.474;7.616;2023-02-28T14:50:36;99160;;;2.5;47.6
27358;BME280;14831;50.474;7.616;2023-02-28T15:00:36;99150;;;2.5;46.6
27358;BME280;14831;50.474;7.616;2023-02-28T15:05:35;99160;;;2.6;48.6
27358;BME280;14831;50.474;7.616;2023-02-28T15:10:35;99160;;;2.5;48.3
27358;BME280;14831;50.474;7.616;2023-02-28T15:15:39;99150;;;2.4;48.1
27358;BME280;14831;50.474;7.616;2023-02-28T15:20:35;99150;;;2.5;48.1
27358;BME280;14831;50.474;7.616;2023-02-28T15:25:35;99150;;;2.5;49.1
27358;BME280;14831;50.474;7.616;2023-02-28T15:30:35;99160;;;2.4;48.9
27358;BME280;14831;50.474;7.616;2023-02-28T15:35:35;99150;;;2.5;48.7
27358;BME280;14831;50.474;7.616;2023-02-28T15:40:36;99150;;;2.4;48.4
27358;BME280;14831;50.474;7.616;2023-02-28T15:45:36;99140;;;2.4;47.4
27358;BME280;14831;50.474;7.616;2023-02-28T15:50:35;99140;;;2.4;49.1
27358;BME280;14831;50.474;7.616;2023-02-28T15:55:35;99150;;;2.4;49.9
27358;BME280;14831;50.474;7.616;2023-02-28T16:00:35;99140;;;2.3;48.9
27358;BME280;14831;50.474;7.616;2023-02-28T16:05:35;99140;;;2.2;50.1
27358;BME280;14831;50.474;7.616;2023-02-28T16:10:35;99140;;;2.2;51.1
27358;BME280;14831;50.474;7.616;2023-02-28T16:15:37;99140;;;2.2;50.5
27358;BME280;14831;50.474;7.616;2023-02-28T16:20:35;99130;;;2.2;48.2
27358;BME280;14831;50.474;7.616;2023-02-28T16:25:36;99130;;;2.2;49.0
27358;BME280;14831;50.474;7.616;2023-02-28T16:30:35;99140;;;2.2;48.7
27358;BME280;14831;50.474;7.616;2023-02-28T16:35:35;99130;;;2.0;50.2
27358;BME280;14831;50.474;7.616;2023-02-28T16:40:35;99150;;;1.9;50.3
27358;BME280;14831;50.474;7.616;2023-02-28T16:45:35;99150;;;1.7;51.8
27358;BME280;14831;50.474;7.616;2023-02-28T16:50:35;99140;;;1.8;50.3
27358;BME280;14831;50.474;7.616;2023-02-28T16:55:35;99150;;;1.8;50.1
27358;BME280;14831;50.474;7.616;2023-02-28T17:00:35;99150;;;1.7;51.6
27358;BME280;14831;50.474;7.616;2023-02-28T17:05:35;99150;;;1.6;50.5
27358;BME280;14831;50.474;7.616;2023-02-28T17:10:35;99150;;;1.3;52.8
27358;BME280;14831;50.474;7.616;2023-02-28T17:15:35;99160;;;1.2;52.8
27358;BME280;14831;50.474;7.616;2023-02-28T17:20:35;99160;;;1.4;51.6
27358;BME280;14831;50.474;7.616;2023-02-28T17:25:35;99170;;;1.3;51.5
27358;BME280;14831;50.474;7.616;2023-02-28T17:30:35;99180;;;1.3;51.6
27358;BME280;14831;50.474;7.616;2023-02-28T17:35:35;99170;;;1.1;52.6
27358;BME280;14831;50.474;7.616;2023-02-28T17:40:35;99190;;;1.2;52.2
27358;BME280;14831;50.474;7.616;2023-02-28T17:45:35;99200;;;1.1;52.8
27358;BME280;14831;50.474;7.616;2023-02-28T17:50:35;99190;;;0.9;53.3
27358;BME280;14831;50.474;7.616;2023-02-28T17:55:35;99190;;;0.8;54.2
27358;BME280;14831;50.474;7.616;2023-02-28T18:00:35;99200;;;0.9;53.2
27358;BME280;14831;50.474;7.616;2023-02-28T18:10:35;99200;;;0.7;53.6
27358;BME280;14831;50.474;7.616;2023-02-28T18:15:35;99190;;;0.7;53.9
27358;BME280;14831;50.474;7.616;2023-02-28T18:20:35;99190;;;0.6;54.1
27358;BME280;14831;50.474;7.616;2023-02-28T18:25:35;99190;;;0.6;54.3
27358;BME280;14831;50.474;7.616;2023-02-28T18:30:35;99200;;;0.5;55.0
27358;BME280;14831;50.474;7.616;2023-02-28T18:35:35;99190;;;0.6;54.6
27358;BME280;14831;50.474;7.616;2023-02-28T18:40:35;99200;;;0.6;54.4
27358;BME280;14831;50.474;7.616;2023-02-28T18:45:35;99190;;;0.5;54.5
27358;BME280;14831;50.474;7.616;2023-02-28T18:50:36;99190;;;0.4;54.8
27358;BME280;14831;50.474;7.616;2023-02-28T18:55:35;99190;;;0.3;55.2
27358;BME280;14831;50.474;7.616;2023-02-28T19:00:35;99180;;;0.4;54.8
27358;BME280;14831;50.474;7.616;2023-02-28T19:05:35;99200;;;0.3;55.4
27358;BME280;14831;50.474;7.616;2023-02-28T19:10:37;99190;;;0.3;55.4
27358;BME280;14831;50.474;7.616;2023-02-28T19:15:35;99200;;;0.2;55.9
27358;BME280;14831;50.474;7.616;2023-02-28T19:20:35;99200;;;0.3;55.5
27358;BME280;14831;50.474;7.616;2023-02-28T19:25:38;99190;;;0.2;55.9
27358;BME280;14831;50.474;7.616;2023-02-28T19:30:35;99190;;;0.2;55.7
27358;BME280;14831;50.474;7.616;2023-02-28T19:35:35;99190;;;0.2;56.1
27358;BME280;14831;50.474;7.616;2023-02-28T19:40:35;99200;;;0.1;56.4
27358;BME280;14831;50.474;7.616;2023-02-28T19:45:35;99200;;;0.1;56.4
27358;BME280;14831;50.474;7.616;2023-02-28T19:50:35;99210;;;0.1;56.7
27358;BME280;14831;50.474;7.616;2023-02-28T19:55:36;99210;;;-0.1;61.2
27358;BME280;14831;50.474;7.616;2023-02-28T20:00:36;99200;;;-0.1;60.8
27358;BME280;14831;50.474;7.616;2023-02-28T20:05:35;99200;;;-0.0;61.1
27358;BME280;14831;50.474;7.616;2023-02-28T20:10:35;99190;;;-0.0;61.1
27358;BME280;14831;50.474;7.616;2023-02-28T20:15:36;99200;;;-0.4;62.8
27358;BME280;14831;50.474;7.616;2023-02-28T20:20:35;99190;;;-0.6;64.0
27358;BME280;14831;50.474;7.616;2023-02-28T20:25:37;99190;;;-0.4;62.7
27358;BME280;14831;50.474;7.616;2023-02-28T20:30:37;99190;;;-0.3;62.2
27358;BME280;14831;50.474;7.616;2023-02-28T20:35:35;99180;;;-0.2;62.2
27358;BME280;14831;50.474;7.616;2023-02-28T20:40:35;99190;;;-0.3;62.4
27358;BME280;14831;50.474;7.616;2023-02-28T20:45:35;99190;;;-0.4;63.0
27358;BME280;14831;50.474;7.616;2023-02-28T20:50:35;99170;;;-0.3;62.6
27358;BME280;14831;50.474;7.616;2023-02-28T20:55:35;99190;;;-0.4;62.9
27358;BME280;14831;50.474;7.616;2023-02-28T21:00:35;99190;;;-0.4;63.3
27358;BME280;14831;50.474;7.616;2023-02-28T21:05:35;99180;;;-0.4;63.5
27358;BME280;14831;50.474;7.616;2023-02-28T21:10:35;99160;;;-0.4;64.0
27358;BME280;14831;50.474;7.616;2023-02-28T21:20:35;99170;;;-0.7;65.8
27358;BME280;14831;50.474;7.616;2023-02-28T21:25:35;99160;;;-0.6;65.2
27358;BME280;14831;50.474;7.616;2023-02-28T21:30:35;99170;;;-1.0;67.3
27358;BME280;14831;50.474;7.616;2023-02-28T21:35:35;99170;;;-0.7;65.9
27358;BME280;14831;50.474;7.616;2023-02-28T21:40:35;99160;;;-0.5;65.1
27358;BME280;14831;50.474;7.616;2023-02-28T21:45:35;99160;;;-0.5;65.0
27358;BME280;14831;50.474;7.616;2023-02-28T21:50:35;99170;;;-0.6;64.9
27358;BME280;14831;50.474;7.616;2023-02-28T21:55:35;99170;;;-0.8;65.6
27358;BME280;14831;50.474;7.616;2023-02-28T22:00:35;99160;;;-0.9;66.1
27358;BME280;14831;50.474;7.616;2023-02-28T22:05:35;99160;;;-1.0;66.7
27358;BME280;14831;50.474;7.616;2023-02-28T22:10:35;99160;;;-1.0;67.2
27358;BME280;14831;50.474;7.616;2023-02-28T22:15:35;99150;;;-1.0;67.7
27358;BME280;14831;50.474;7.616;2023-02-28T22:20:35;99160;;;-1.0;67.9
27358;BME280;14831;50.474;7.616;2023-02-28T22:25:35;99160;;;-1.0;68.3
27358;BME280;14831;50.474;7.616;2023-02-28T22:30:35;99180;;;-0.8;67.8
27358;BME280;14831;50.474;7.616;2023-02-28T22:35:35;99170;;;-1.2;69.1
27358;BME280;14831;50.474;7.616;2023-02-28T22:40:35;99170;;;-1.2;69.5
27358;BME280;14831;50.474;7.616;2023-02-28T22:45:35;99170;;;-1.2;69.5
27358;BME280;14831;50.474;7.616;2023-02-28T22:50:35;99170;;;-1.1;68.9
27358;BME280;14831;50.474;7.616;2023-02-28T22:55:35;99180;;;-1.1;69.1
27358;BME280;14831;50.474;7.616;2023-02-28T23:00:35;99170;;;-1.2;69.5
27358;BME280;14831;50.474;7.616;2023-02-28T23:05:35;99170;;;-1.3;70.0
27358;BME280;14831;50.474;7.616;2023-02-28T23:10:35;99180;;;-1.2;70.0
27358;BME280;14831;50.474;7.616;2023-02-28T23:15:38;99170;;;-1.3;70.6
27358;BME280;14831;50.474;7.616;2023-02-28T23:20:35;99180;;;-1.4;71.1
27358;BME280;14831;50.474;7.616;2023-02-28T23:25:37;99180;;;-1.4;71.2
27358;BME280;14831;50.474;7.616;2023-02-28T23:30:35;99170;;;-1.4;71.3
27358;BME280;14831;50.474;7.616;2023-02-28T23:35:35;99180;;;-1.4;71.4
27358;BME280;14831;50.474;7.616;2023-02-28T23:40:35;99180;;;-1.4;71.8
27358;BME280;14831;50.474;7.616;2023-02-28T23:45:35;99170;;;-2.0;74.5
27358;BME280;14831;50.474;7.616;2023-02-28T23:50:36;99160;;;-2.4;76.0
27358;BME280;14831;50.474;7.616;2023-02-28T23:55:35;99160;;;-2.5;77.1
